createdAt,value
2024-01-05T00:01:03.158Z,5.26
2024-01-05T00:03:30.940Z,5.19
2024-01-05T00:06:01.111Z,5.24
2024-01-05T00:08:28.784Z,5.27
2024-01-05T00:10:56.340Z,5.24
2024-01-05T00:13:23.961Z,5.25
2024-01-05T00:15:51.540Z,5.19
2024-01-05T00:18:19.155Z,5.20
2024-01-05T00:20:46.863Z,5.19
2024-01-05T00:23:15.845Z,5.18
2024-01-05T00:25:43.354Z,5.21
2024-01-05T00:28:11.097Z,5.21
2024-01-05T00:30:38.790Z,4.96
2024-01-05T00:33:07.782Z,4.98
2024-01-05T00:35:35.409Z,4.99
2024-01-05T00:38:02.963Z,5.18
2024-01-05T00:40:31.855Z,5.05
2024-01-05T00:42:59.257Z,5.19
2024-01-05T00:45:26.864Z,5.23
2024-01-05T00:47:54.823Z,4.58
2024-01-05T00:50:22.608Z,4.91
2024-01-05T00:52:50.283Z,5.15
2024-01-05T00:55:17.783Z,5.20
2024-01-05T00:57:46.689Z,5.17
2024-01-05T01:00:14.593Z,5.14
2024-01-05T01:02:42.996Z,5.21
2024-01-05T01:05:10.917Z,5.13
2024-01-05T01:07:39.995Z,5.13
2024-01-05T01:10:08.394Z,5.22
2024-01-05T01:12:36.142Z,5.20
2024-01-05T01:15:06.390Z,5.14
2024-01-05T01:17:34.020Z,5.13
2024-01-05T01:20:01.945Z,4.84
2024-01-05T01:22:29.754Z,4.65
2024-01-05T01:24:57.348Z,4.75
2024-01-05T01:27:24.924Z,4.94
2024-01-05T01:29:52.569Z,4.73
2024-01-05T01:32:21.464Z,4.99
2024-01-05T01:34:48.943Z,5.04
2024-01-05T01:37:16.562Z,5.04
2024-01-05T01:39:45.138Z,4.99
2024-01-05T01:42:13.067Z,4.86
2024-01-05T01:44:40.685Z,4.90
2024-01-05T01:47:08.468Z,4.97
2024-01-05T01:49:40.515Z,4.76
2024-01-05T01:52:09.104Z,4.90
2024-01-05T01:54:37.731Z,4.83
2024-01-05T01:57:07.609Z,4.74
2024-01-05T01:59:35.730Z,4.88
2024-01-05T02:02:03.466Z,4.87
2024-01-05T02:04:31.761Z,4.82
2024-01-05T02:07:00.792Z,4.80
2024-01-05T02:09:28.525Z,4.64
2024-01-05T02:11:56.216Z,4.74
2024-01-05T02:14:26.255Z,4.78
2024-01-05T02:16:53.762Z,4.81
2024-01-05T02:19:21.443Z,4.75
2024-01-05T02:21:54.069Z,4.76
2024-01-05T02:24:23.352Z,4.66
2024-01-05T02:26:51.129Z,4.68
2024-01-05T02:29:23.245Z,4.72
2024-01-05T02:31:52.049Z,4.65
2024-01-05T02:34:19.872Z,4.71
2024-01-05T02:36:50.113Z,4.66
2024-01-05T02:39:17.730Z,4.65
2024-01-05T02:41:46.708Z,4.68
2024-01-05T02:44:14.226Z,4.67
2024-01-05T02:46:41.955Z,4.67
2024-01-05T02:49:10.911Z,4.67
2024-01-05T02:51:38.568Z,4.56
2024-01-05T02:54:06.186Z,4.60
2024-01-05T02:56:36.958Z,4.65
2024-01-05T02:59:06.682Z,4.59
2024-01-05T03:01:34.390Z,4.51
2024-01-05T03:04:02.898Z,4.56
2024-01-05T03:06:30.668Z,4.39
2024-01-05T03:08:58.300Z,4.51
2024-01-05T03:11:25.857Z,4.58
2024-01-05T03:13:53.509Z,4.47
2024-01-05T03:16:22.429Z,3.90
2024-01-05T03:18:50.081Z,4.35
2024-01-05T03:21:17.703Z,4.46
2024-01-05T03:23:45.862Z,4.47
2024-01-05T03:26:13.429Z,4.48
2024-01-05T03:28:40.967Z,4.00
2024-01-05T03:31:13.558Z,4.31
2024-01-05T03:33:42.856Z,4.43
2024-01-05T03:36:10.833Z,3.63
2024-01-05T03:38:38.502Z,4.11
2024-01-05T03:41:06.044Z,4.41
2024-01-05T03:43:33.565Z,4.14
2024-01-05T03:46:01.194Z,4.36
2024-01-05T03:48:28.945Z,4.48
2024-01-05T03:50:57.879Z,4.38
2024-01-05T03:53:25.303Z,3.84
2024-01-05T03:55:52.757Z,4.31
2024-01-05T03:58:20.305Z,4.39
2024-01-05T04:00:48.061Z,4.46
2024-01-05T04:03:18.137Z,4.42
2024-01-05T04:05:48.823Z,3.74
2024-01-05T04:08:20.718Z,4.41
2024-01-05T04:10:48.340Z,4.29
2024-01-05T04:13:16.204Z,4.32
2024-01-05T04:15:44.087Z,3.91
2024-01-05T04:18:11.791Z,3.92
2024-01-05T04:20:39.613Z,4.21
2024-01-05T04:23:07.611Z,4.33
2024-01-05T04:25:36.617Z,4.40
2024-01-05T04:28:04.479Z,4.42
2024-01-05T04:30:32.066Z,4.40
2024-01-05T04:33:00.030Z,3.94
2024-01-05T04:35:27.673Z,3.99
2024-01-05T04:37:55.610Z,4.11
2024-01-05T04:40:23.282Z,3.19
2024-01-05T04:42:52.238Z,3.81
2024-01-05T04:45:19.721Z,4.09
2024-01-05T04:47:48.258Z,4.26
2024-01-05T04:50:17.666Z,4.16
2024-01-05T04:52:45.199Z,4.27
2024-01-05T04:55:15.979Z,4.24
2024-01-05T04:57:46.371Z,4.26
2024-01-05T05:00:16.542Z,4.34
2024-01-05T05:02:44.654Z,4.32
2024-01-05T05:05:12.375Z,4.34
2024-01-05T05:07:40.045Z,4.21
2024-01-05T05:10:09.890Z,4.25
2024-01-05T05:12:37.594Z,3.99
2024-01-05T05:15:06.178Z,4.26
2024-01-05T05:17:34.167Z,4.14
2024-01-05T05:20:01.844Z,4.13
2024-01-05T05:22:29.406Z,4.22
2024-01-05T05:24:56.948Z,4.14
2024-01-05T05:27:24.627Z,3.99
2024-01-05T05:29:52.555Z,4.20
2024-01-05T05:32:20.131Z,4.28
2024-01-05T05:34:49.151Z,3.79
2024-01-05T05:37:16.945Z,3.91
2024-01-05T05:39:44.589Z,3.63
2024-01-05T05:42:12.366Z,4.06
2024-01-05T05:44:39.966Z,3.95
2024-01-05T05:47:17.731Z,3.57
2024-01-05T05:49:45.351Z,3.81
2024-01-05T05:52:14.915Z,4.06
2024-01-05T05:54:42.499Z,3.73
2024-01-05T05:57:10.360Z,4.00
2024-01-05T05:59:37.973Z,4.13
2024-01-05T06:02:04.873Z,4.08
2024-01-05T06:04:32.611Z,3.77
2024-01-05T06:07:00.474Z,3.98
2024-01-05T06:09:29.425Z,4.16
2024-01-05T06:11:57.040Z,4.17
2024-01-05T06:14:27.489Z,3.27
2024-01-05T06:16:55.090Z,4.00
2024-01-05T06:19:22.856Z,3.90
2024-01-05T06:21:50.602Z,3.86
2024-01-05T06:24:18.207Z,4.07
2024-01-05T06:26:47.093Z,4.09
2024-01-05T06:29:14.535Z,3.79
2024-01-05T06:31:42.296Z,3.80
2024-01-05T06:34:10.189Z,3.72
2024-01-05T06:36:40.938Z,3.90
2024-01-05T06:39:08.990Z,3.99
2024-01-05T06:41:36.623Z,3.99
2024-01-05T06:44:05.898Z,3.96
2024-01-05T06:46:33.871Z,3.93
2024-01-05T06:49:02.072Z,3.81
2024-01-05T06:51:31.443Z,3.97
2024-01-05T06:54:00.018Z,4.05
2024-01-05T06:56:29.294Z,3.87
2024-01-05T06:58:57.452Z,4.05
2024-01-05T07:01:26.381Z,4.01
2024-01-05T07:03:53.938Z,4.01
2024-01-05T07:06:21.639Z,3.91
2024-01-05T07:08:49.214Z,3.93
2024-01-05T07:11:21.181Z,3.96
2024-01-05T07:13:48.804Z,3.94
2024-01-05T07:16:17.605Z,3.83
2024-01-05T07:18:47.351Z,3.88
2024-01-05T07:21:18.292Z,3.89
2024-01-05T07:23:48.895Z,3.94
2024-01-05T07:26:21.615Z,3.88
2024-01-05T07:28:49.311Z,3.64
2024-01-05T07:31:17.068Z,3.90
2024-01-05T07:33:46.129Z,4.00
2024-01-05T07:36:13.789Z,3.79
2024-01-05T07:38:41.331Z,3.84
2024-01-05T07:41:08.911Z,3.93
2024-01-05T07:43:36.669Z,3.87
2024-01-05T07:46:04.435Z,3.87
2024-01-05T07:48:32.148Z,3.93
2024-01-05T07:51:04.791Z,3.86
2024-01-05T07:53:32.322Z,3.96
2024-01-05T07:56:01.740Z,3.84
2024-01-05T07:58:29.338Z,3.83
2024-01-05T08:00:56.956Z,3.81
2024-01-05T08:03:24.983Z,3.79
2024-01-05T08:05:52.843Z,3.93
2024-01-05T08:08:21.812Z,3.85
2024-01-05T08:10:49.316Z,3.81
2024-01-05T08:13:16.688Z,3.84
2024-01-05T08:15:45.528Z,3.80
2024-01-05T08:18:13.631Z,3.89
2024-01-05T08:20:41.320Z,3.58
2024-01-05T08:23:10.993Z,3.89
2024-01-05T08:25:40.011Z,3.92
2024-01-05T08:28:11.877Z,3.99
2024-01-05T08:30:40.585Z,3.93
2024-01-05T08:33:08.506Z,3.93
2024-01-05T08:35:38.953Z,3.94
2024-01-05T08:38:06.808Z,3.92
2024-01-05T08:40:34.483Z,3.70
2024-01-05T08:43:03.862Z,3.77
2024-01-05T08:45:33.736Z,3.63
2024-01-05T08:48:02.189Z,3.94
2024-01-05T08:50:29.928Z,3.76
2024-01-05T08:52:57.493Z,4.00
2024-01-05T08:55:25.282Z,4.07
2024-01-05T08:57:56.157Z,3.63
2024-01-05T09:00:25.158Z,3.48
2024-01-05T09:02:52.904Z,3.99
2024-01-05T09:05:20.689Z,3.88
2024-01-05T09:07:48.762Z,4.07
2024-01-05T09:10:16.589Z,3.86
2024-01-05T09:12:44.290Z,4.12
2024-01-05T09:15:11.917Z,4.25
2024-01-05T09:17:40.908Z,4.32
2024-01-05T09:20:09.217Z,4.19
2024-01-05T09:22:38.482Z,4.33
2024-01-05T09:25:07.235Z,4.37
2024-01-05T09:27:34.836Z,4.31
2024-01-05T09:30:02.527Z,4.32
2024-01-05T09:32:30.204Z,4.19
2024-01-05T09:34:59.093Z,4.18
2024-01-05T09:37:26.503Z,3.98
2024-01-05T09:39:54.988Z,4.08
2024-01-05T09:42:23.416Z,4.03
2024-01-05T09:44:53.048Z,4.02
2024-01-05T09:47:21.009Z,4.09
2024-01-05T09:49:53.683Z,4.17
2024-01-05T09:52:22.983Z,4.29
2024-01-05T09:54:51.938Z,4.25
2024-01-05T09:57:19.887Z,4.34
2024-01-05T09:59:49.124Z,4.46
2024-01-05T10:02:23.654Z,4.60
2024-01-05T10:04:51.224Z,4.60
2024-01-05T10:07:19.459Z,4.61
2024-01-05T10:09:53.309Z,4.63
2024-01-05T10:12:20.923Z,4.69
2024-01-05T10:14:49.040Z,4.71
2024-01-05T10:17:17.884Z,4.76
2024-01-05T10:19:45.842Z,4.79
2024-01-05T10:22:14.625Z,4.80
2024-01-05T10:24:44.058Z,4.83
2024-01-05T10:27:14.907Z,5.17
2024-01-05T10:29:46.318Z,5.08
2024-01-05T10:32:16.533Z,5.38
2024-01-05T10:34:45.883Z,5.38
2024-01-05T10:37:14.373Z,5.51
2024-01-05T10:39:47.625Z,5.59
2024-01-05T10:42:28.595Z,5.37
2024-01-05T10:44:59.019Z,5.43
2024-01-05T10:47:30.171Z,5.44
2024-01-05T10:49:58.810Z,5.47
2024-01-05T10:52:28.377Z,5.60
2024-01-05T10:54:56.277Z,5.64
2024-01-05T10:57:24.781Z,5.66
2024-01-05T10:59:55.264Z,5.64
2024-01-05T11:02:26.166Z,5.57
2024-01-05T11:05:03.159Z,5.62
2024-01-05T11:07:34.897Z,5.62
2024-01-05T11:10:17.405Z,5.64
2024-01-05T11:13:03.530Z,5.61
2024-01-05T11:15:49.110Z,5.59
2024-01-05T11:21:21.455Z,5.81
2024-01-05T11:23:50.761Z,5.77
2024-01-05T11:26:31.204Z,5.96
2024-01-05T11:28:58.861Z,5.87
2024-01-05T11:32:00.771Z,5.93
2024-01-05T11:34:36.537Z,6.01
2024-01-05T11:37:06.705Z,5.87
2024-01-05T11:39:46.715Z,5.91
2024-01-05T11:42:30.967Z,6.04
2024-01-05T11:45:00.142Z,5.92
2024-01-05T11:47:47.193Z,6.10
2024-01-05T11:50:28.284Z,5.99
2024-01-05T11:53:15.642Z,6.27
2024-01-05T11:55:50.218Z,6.33
2024-01-05T11:58:19.593Z,6.28
2024-01-05T12:00:48.535Z,6.36
2024-01-05T12:03:19.067Z,6.26
2024-01-05T12:05:51.218Z,6.19
2024-01-05T12:08:19.370Z,6.29
2024-01-05T12:10:46.994Z,6.48
2024-01-05T12:13:14.616Z,6.26
2024-01-05T12:15:49.770Z,6.11
2024-01-05T12:18:33.809Z,6.28
2024-01-05T12:21:06.974Z,6.41
2024-01-05T12:23:35.246Z,6.27
2024-01-05T12:26:04.556Z,6.34
2024-01-05T12:28:34.560Z,6.34
2024-01-05T12:31:03.264Z,6.27
2024-01-05T12:33:34.636Z,6.51
2024-01-05T12:36:02.303Z,6.71
2024-01-05T12:38:31.101Z,6.43
2024-01-05T12:41:06.760Z,6.37
2024-01-05T12:43:35.993Z,6.38
2024-01-05T12:46:05.998Z,6.53
2024-01-05T12:48:35.248Z,6.40
2024-01-05T12:51:07.447Z,6.30
2024-01-05T12:53:35.835Z,6.41
2024-01-05T12:56:11.111Z,6.35
2024-01-05T12:58:40.586Z,6.33
2024-01-05T13:01:09.183Z,6.37
2024-01-05T13:03:38.243Z,6.49
2024-01-05T13:06:10.207Z,6.48
2024-01-05T13:08:38.029Z,6.50
2024-01-05T13:11:07.425Z,6.36
2024-01-05T13:13:35.004Z,6.47
2024-01-05T13:16:03.131Z,6.40
2024-01-05T13:18:30.860Z,6.38
2024-01-05T13:20:59.953Z,6.48
2024-01-05T13:23:29.321Z,6.45
2024-01-05T13:25:56.908Z,6.55
2024-01-05T13:28:24.522Z,6.66
2024-01-05T13:30:52.654Z,6.65
2024-01-05T13:33:20.476Z,6.48
2024-01-05T13:35:49.851Z,6.55
2024-01-05T13:38:19.606Z,6.45
2024-01-05T13:40:47.341Z,6.47
2024-01-05T13:43:14.960Z,6.64
2024-01-05T13:45:42.796Z,6.54
2024-01-05T13:48:10.461Z,6.70
2024-01-05T13:50:38.019Z,6.47
2024-01-05T13:53:10.072Z,6.42
2024-01-05T13:55:39.004Z,6.65
2024-01-05T13:58:07.318Z,6.59
2024-01-05T14:00:35.086Z,6.54
2024-01-05T14:03:03.026Z,6.49
2024-01-05T14:05:30.937Z,6.45
2024-01-05T14:07:58.641Z,6.51
2024-01-05T14:10:26.310Z,6.40
2024-01-05T14:13:00.227Z,6.39
2024-01-05T14:15:28.725Z,6.35
2024-01-05T14:17:56.550Z,6.40
2024-01-05T14:20:24.105Z,6.36
2024-01-05T14:22:51.731Z,6.34
2024-01-05T14:25:19.274Z,6.39
2024-01-05T14:27:49.427Z,6.41
2024-01-05T14:30:18.801Z,6.32
2024-01-05T14:32:46.714Z,6.31
2024-01-05T14:35:14.361Z,6.33
2024-01-05T14:37:41.946Z,6.31
2024-01-05T14:40:13.062Z,6.31
2024-01-05T14:42:40.739Z,6.26
2024-01-05T14:45:09.333Z,6.30
2024-01-05T14:47:40.470Z,6.25
2024-01-05T14:50:09.616Z,6.22
2024-01-05T14:52:37.469Z,6.20
2024-01-05T14:55:05.883Z,6.21
2024-01-05T14:57:33.551Z,6.17
2024-01-05T15:00:01.782Z,6.21
2024-01-05T15:02:29.484Z,6.20
2024-01-05T15:04:58.543Z,6.15
2024-01-05T15:07:27.155Z,6.20
2024-01-05T15:09:54.976Z,6.16
2024-01-05T15:12:22.837Z,6.10
2024-01-05T15:14:50.583Z,6.13
2024-01-05T15:17:18.284Z,6.11
2024-01-05T15:19:46.090Z,6.06
2024-01-05T15:22:15.223Z,6.08
2024-01-05T15:24:46.344Z,6.03
2024-01-05T15:27:14.508Z,6.07
2024-01-05T15:29:42.232Z,6.05
2024-01-05T15:32:09.962Z,6.02
2024-01-05T15:34:37.927Z,6.00
2024-01-05T15:37:05.799Z,5.98
2024-01-05T15:39:34.762Z,6.01
2024-01-05T15:42:02.404Z,5.99
2024-01-05T15:44:30.145Z,5.98
2024-01-05T15:46:57.663Z,5.97
2024-01-05T15:49:25.825Z,5.86
2024-01-05T15:51:54.016Z,5.94
2024-01-05T15:54:21.820Z,5.97
2024-01-05T15:56:50.848Z,5.96
2024-01-05T15:59:18.476Z,5.98
2024-01-05T16:01:49.705Z,5.98
2024-01-05T16:04:20.094Z,5.92
2024-01-05T16:06:47.758Z,5.91
2024-01-05T16:09:15.506Z,5.90
2024-01-05T16:11:43.487Z,5.86
2024-01-05T16:14:14.714Z,5.84
2024-01-05T16:16:42.432Z,5.79
2024-01-05T16:19:10.894Z,5.85
2024-01-05T16:21:38.827Z,5.85
2024-01-05T16:24:10.089Z,5.78
2024-01-05T16:26:37.922Z,5.61
2024-01-05T16:29:05.448Z,5.53
2024-01-05T16:31:34.546Z,5.66
2024-01-05T16:34:03.440Z,5.57
2024-01-05T16:36:30.982Z,5.60
2024-01-05T16:38:58.678Z,5.76
2024-01-05T16:41:26.346Z,5.67
2024-01-05T16:43:54.608Z,5.77
2024-01-05T16:46:22.388Z,5.76
2024-01-05T16:48:54.088Z,5.67
2024-01-05T16:51:23.030Z,5.77
2024-01-05T16:53:51.782Z,5.67
2024-01-05T16:56:25.561Z,5.75
2024-01-05T16:58:54.336Z,5.77
2024-01-05T17:01:22.143Z,5.79
2024-01-05T17:03:52.026Z,5.73
2024-01-05T17:06:20.880Z,5.76
2024-01-05T17:08:48.612Z,5.67
2024-01-05T17:11:16.318Z,5.67
2024-01-05T17:13:43.875Z,5.66
2024-01-05T17:16:12.062Z,5.49
2024-01-05T17:18:40.063Z,5.64
2024-01-05T17:21:10.112Z,5.68
2024-01-05T17:23:38.137Z,5.64
2024-01-05T17:26:08.765Z,5.62
2024-01-05T17:28:36.414Z,5.66
2024-01-05T17:31:04.193Z,5.66
2024-01-05T17:33:31.827Z,5.65
2024-01-05T17:35:59.439Z,5.62
2024-01-05T17:38:28.306Z,5.64
2024-01-05T17:40:55.761Z,5.59
2024-01-05T17:43:23.358Z,5.57
2024-01-05T17:45:50.998Z,5.54
2024-01-05T17:48:20.061Z,5.54
2024-01-05T17:50:47.824Z,5.56
2024-01-05T17:53:15.464Z,5.54
2024-01-05T17:55:46.512Z,5.51
2024-01-05T17:58:14.210Z,5.27
2024-01-05T18:00:41.853Z,5.49
2024-01-05T18:03:09.706Z,5.48
2024-01-05T18:05:37.238Z,5.42
2024-01-05T18:08:05.323Z,5.39
2024-01-05T18:10:33.505Z,5.39
2024-01-05T18:13:02.387Z,5.40
2024-01-05T18:15:29.860Z,5.41
2024-01-05T18:17:57.566Z,5.31
2024-01-05T18:20:25.198Z,5.32
2024-01-05T18:22:52.918Z,5.33
2024-01-05T18:25:20.495Z,5.20
2024-01-05T18:27:50.812Z,5.16
2024-01-05T18:30:20.077Z,5.23
2024-01-05T18:32:47.733Z,5.21
2024-01-05T18:35:15.602Z,5.10
2024-01-05T18:37:43.257Z,5.19
2024-01-05T18:40:11.322Z,5.13
2024-01-05T18:42:39.101Z,5.21
2024-01-05T18:45:08.735Z,5.21
2024-01-05T18:47:37.781Z,5.24
2024-01-05T18:50:06.188Z,5.18
2024-01-05T18:52:33.861Z,5.18
2024-01-05T18:55:01.664Z,5.15
2024-01-05T18:57:31.801Z,5.14
2024-01-05T19:00:01.378Z,5.11
2024-01-05T19:02:31.474Z,5.13
2024-01-05T19:05:01.639Z,5.12
2024-01-05T19:07:29.901Z,5.11
2024-01-05T19:09:57.583Z,5.13
2024-01-05T19:12:25.252Z,5.11
2024-01-05T19:14:52.928Z,5.13
2024-01-05T19:17:21.886Z,5.02
2024-01-05T19:19:51.013Z,4.19
2024-01-05T19:22:21.162Z,4.00
2024-01-05T19:24:48.034Z,4.43
2024-01-05T19:27:16.001Z,4.51
2024-01-05T19:29:43.571Z,4.48
2024-01-05T19:32:11.086Z,4.72
2024-01-05T19:34:38.903Z,4.70
2024-01-05T19:37:06.490Z,4.40
2024-01-05T19:39:35.428Z,3.76
2024-01-05T19:42:06.491Z,3.53
2024-01-05T19:44:34.073Z,4.21
2024-01-05T19:47:02.149Z,4.60
2024-01-05T19:49:30.092Z,4.58
2024-01-05T19:51:57.737Z,4.49
2024-01-05T19:54:25.846Z,4.43
2024-01-05T19:56:55.350Z,4.65
2024-01-05T19:59:26.075Z,4.62
2024-01-05T20:01:53.903Z,4.76
2024-01-05T20:04:21.625Z,4.79
2024-01-05T20:06:50.145Z,4.80
2024-01-05T20:09:18.461Z,4.84
2024-01-05T20:11:47.163Z,4.83
2024-01-05T20:14:16.894Z,4.84
2024-01-05T20:16:44.537Z,4.82
2024-01-05T20:19:14.100Z,4.81
2024-01-05T20:21:41.988Z,4.81
2024-01-05T20:24:09.870Z,4.68
2024-01-05T20:26:38.016Z,4.52
2024-01-05T20:29:06.421Z,3.93
2024-01-05T20:31:35.708Z,4.12
2024-01-05T20:34:06.065Z,4.56
2024-01-05T20:36:36.155Z,4.64
2024-01-05T20:39:04.009Z,4.19
2024-01-05T20:41:31.793Z,4.15
2024-01-05T20:44:03.603Z,4.24
2024-01-05T20:46:31.334Z,4.23
2024-01-05T20:49:00.511Z,4.18
2024-01-05T20:51:28.954Z,3.98
2024-01-05T20:53:57.508Z,3.71
2024-01-05T20:56:25.382Z,3.93
2024-01-05T20:58:53.136Z,3.30
2024-01-05T21:01:20.844Z,3.84
2024-01-05T21:03:48.668Z,3.94
2024-01-05T21:06:17.607Z,3.72
2024-01-05T21:08:45.180Z,4.18
2024-01-05T21:11:23.642Z,4.44
2024-01-05T21:13:51.613Z,4.15
2024-01-05T21:16:19.666Z,4.44
2024-01-05T21:18:50.471Z,4.51
2024-01-05T21:21:21.953Z,4.32
2024-01-05T21:23:50.121Z,4.45
2024-01-05T21:26:17.684Z,4.40
2024-01-05T21:28:45.364Z,4.48
2024-01-05T21:31:13.191Z,4.46
2024-01-05T21:33:43.317Z,4.48
2024-01-05T21:36:12.308Z,4.47
2024-01-05T21:38:41.263Z,4.43
2024-01-05T21:41:08.752Z,4.50
2024-01-05T21:43:36.307Z,4.42
2024-01-05T21:46:04.341Z,4.40
2024-01-05T21:48:33.237Z,4.45
2024-01-05T21:51:01.398Z,4.45
2024-01-05T21:53:28.960Z,4.48
2024-01-05T21:55:57.881Z,4.42
2024-01-05T21:58:25.299Z,4.40
2024-01-05T22:00:53.070Z,4.37
2024-01-05T22:03:21.028Z,4.37
2024-01-05T22:05:48.857Z,4.33
2024-01-05T22:08:19.124Z,4.36
2024-01-05T22:10:51.238Z,4.32
2024-01-05T22:13:20.153Z,4.28
2024-01-05T22:15:47.615Z,4.30
2024-01-05T22:18:16.363Z,4.30
2024-01-05T22:20:44.377Z,4.23
2024-01-05T22:23:11.992Z,4.23
2024-01-05T22:25:41.340Z,4.20
2024-01-05T22:28:11.863Z,4.18
2024-01-05T22:30:40.927Z,4.15
2024-01-05T22:33:09.094Z,4.22
2024-01-05T22:35:37.317Z,4.20
2024-01-05T22:38:05.414Z,4.26
2024-01-05T22:40:32.959Z,4.20
2024-01-05T22:43:02.733Z,4.26
2024-01-05T22:45:30.402Z,3.53
2024-01-05T22:47:59.594Z,4.10
2024-01-05T22:50:27.285Z,4.12
2024-01-05T22:52:54.885Z,4.13
2024-01-05T22:55:22.593Z,4.12
2024-01-05T22:57:50.435Z,4.18
2024-01-05T23:00:20.247Z,4.13
2024-01-05T23:02:47.896Z,4.12
2024-01-05T23:05:16.807Z,4.17
2024-01-05T23:07:44.296Z,4.15
2024-01-05T23:10:11.884Z,4.11
2024-01-05T23:12:39.857Z,4.13
2024-01-05T23:15:11.567Z,4.07
2024-01-05T23:17:39.195Z,3.99
2024-01-05T23:20:13.667Z,3.98
2024-01-05T23:22:42.729Z,4.06
2024-01-05T23:25:13.260Z,4.01
2024-01-05T23:27:40.970Z,3.95
2024-01-05T23:30:09.816Z,4.03
2024-01-05T23:32:37.454Z,4.08
2024-01-05T23:35:05.612Z,4.09
2024-01-05T23:37:33.370Z,4.03
2024-01-05T23:40:02.413Z,3.93
2024-01-05T23:42:30.086Z,3.95
2024-01-05T23:44:57.830Z,3.99
2024-01-05T23:47:26.250Z,3.99
2024-01-05T23:49:55.556Z,3.95
2024-01-05T23:52:23.357Z,3.89
2024-01-05T23:54:51.010Z,3.93
2024-01-05T23:57:19.942Z,3.91
2024-01-05T23:59:47.413Z,3.95
